createdAt,value
2022-09-13T00:00:22.419Z,16.879999
2022-09-13T00:03:47.634Z,16.879999
2022-09-13T00:07:12.833Z,16.83
2022-09-13T00:10:38.187Z,16.790001
2022-09-13T00:14:03.253Z,16.790001
2022-09-13T00:17:28.423Z,16.780001
2022-09-13T00:20:53.614Z,16.780001
2022-09-13T00:24:18.859Z,16.77
2022-09-13T00:27:44.166Z,16.76
2022-09-13T00:31:09.233Z,16.75
2022-09-13T00:34:34.436Z,16.719999
2022-09-13T00:37:59.646Z,16.68
2022-09-13T00:41:24.814Z,16.67
2022-09-13T00:44:50.035Z,16.65
2022-09-13T00:48:15.210Z,16.629999
2022-09-13T00:51:40.356Z,16.610001
2022-09-13T00:55:05.547Z,16.629999
2022-09-13T00:58:30.766Z,16.65
2022-09-13T01:01:56.042Z,16.639999
2022-09-13T01:05:21.224Z,16.65
2022-09-13T01:08:46.416Z,16.67
2022-09-13T01:12:11.561Z,16.700001
2022-09-13T01:15:36.753Z,16.709999
2022-09-13T01:19:02.090Z,16.700001
2022-09-13T01:22:27.182Z,16.709999
2022-09-13T01:25:52.418Z,16.700001
2022-09-13T01:29:17.646Z,16.719999
2022-09-13T01:32:42.850Z,16.719999
2022-09-13T01:36:08.075Z,16.73
2022-09-13T01:39:33.241Z,16.74
2022-09-13T01:42:58.453Z,16.75
2022-09-13T01:46:23.642Z,16.77
2022-09-13T01:49:48.830Z,16.780001
2022-09-13T01:53:14.063Z,16.799999
2022-09-13T01:56:39.218Z,16.82
2022-09-13T02:00:04.446Z,16.83
2022-09-13T02:03:29.616Z,16.84
2022-09-13T02:06:54.827Z,16.84
2022-09-13T02:10:20.057Z,16.870001
2022-09-13T02:13:45.281Z,16.9
2022-09-13T02:17:10.444Z,16.84
2022-09-13T02:20:35.662Z,16.790001
2022-09-13T02:24:00.864Z,16.77
2022-09-13T02:27:26.134Z,16.719999
2022-09-13T02:30:51.340Z,16.68
2022-09-13T02:34:16.551Z,16.65
2022-09-13T02:37:41.798Z,16.620001
2022-09-13T02:41:07.002Z,16.610001
2022-09-13T02:44:32.410Z,16.57
2022-09-13T02:47:57.475Z,16.559999
2022-09-13T02:51:22.694Z,16.530001
2022-09-13T02:54:47.871Z,16.5
2022-09-13T02:58:13.089Z,16.48
2022-09-13T03:01:38.406Z,16.49
2022-09-13T03:05:03.570Z,16.51
2022-09-13T03:08:28.753Z,16.5
2022-09-13T03:11:53.941Z,16.459999
2022-09-13T03:15:19.129Z,16.440001
2022-09-13T03:18:44.355Z,16.360001
2022-09-13T03:22:09.522Z,16.32
2022-09-13T03:25:34.763Z,16.299999
2022-09-13T03:28:59.969Z,16.27
2022-09-13T03:32:25.183Z,16.26
2022-09-13T03:35:50.464Z,16.27
2022-09-13T03:39:15.692Z,16.299999
2022-09-13T03:42:40.939Z,16.370001
2022-09-13T03:46:06.370Z,16.450001
2022-09-13T03:49:31.998Z,16.52
2022-09-13T03:52:58.172Z,16.540001
2022-09-13T03:56:23.385Z,16.57
2022-09-13T03:59:48.636Z,16.610001
2022-09-13T04:03:13.835Z,16.629999
2022-09-13T04:06:39.085Z,16.66
2022-09-13T04:10:04.407Z,16.690001
2022-09-13T04:13:29.501Z,16.709999
2022-09-13T04:16:54.789Z,16.700001
2022-09-13T04:20:20.011Z,16.700001
2022-09-13T04:23:45.317Z,16.690001
2022-09-13T04:27:10.474Z,16.700001
2022-09-13T04:30:37.765Z,16.73
2022-09-13T04:34:00.823Z,16.73
2022-09-13T04:37:26.037Z,16.719999
2022-09-13T04:40:51.290Z,16.690001
2022-09-13T04:44:16.540Z,16.66
2022-09-13T04:47:41.730Z,16.67
2022-09-13T04:51:06.950Z,16.700001
2022-09-13T04:54:32.179Z,16.709999
2022-09-13T04:57:57.409Z,16.719999
2022-09-13T05:01:25.946Z,16.76
2022-09-13T05:04:47.883Z,16.780001
2022-09-13T05:08:13.077Z,16.780001
2022-09-13T05:11:38.282Z,16.790001
2022-09-13T05:15:03.496Z,16.799999
2022-09-13T05:18:28.769Z,16.84
2022-09-13T05:21:53.989Z,16.860001
2022-09-13T05:25:21.123Z,16.9
2022-09-13T05:28:44.492Z,16.92
2022-09-13T05:32:09.743Z,16.959999
2022-09-13T05:35:34.958Z,17.02
2022-09-13T05:39:28.944Z,17.07
2022-09-13T05:42:25.395Z,17.129999
2022-09-13T05:45:50.659Z,17.17
2022-09-13T05:49:15.858Z,17.200001
2022-09-13T05:52:41.069Z,17.23
2022-09-13T05:56:06.267Z,17.26
2022-09-13T05:59:31.533Z,17.32
2022-09-13T06:02:56.777Z,17.35
2022-09-13T06:06:21.979Z,17.4
2022-09-13T06:09:47.218Z,17.48
2022-09-13T06:13:12.444Z,17.51
2022-09-13T06:16:37.814Z,17.49
2022-09-13T06:20:02.931Z,17.49
2022-09-13T06:23:28.110Z,17.5
2022-09-13T06:26:53.322Z,17.5
2022-09-13T06:30:18.496Z,17.52
2022-09-13T06:33:43.699Z,17.58
2022-09-13T06:37:08.863Z,17.610001
2022-09-13T06:40:34.084Z,17.639999
2022-09-13T06:43:59.259Z,17.690001
2022-09-13T06:47:24.401Z,17.76
2022-09-13T06:50:49.593Z,17.860001
2022-09-13T06:54:14.756Z,17.98
2022-09-13T06:57:40.078Z,18.110001
2022-09-13T07:01:05.333Z,18.219999
2022-09-13T07:04:30.499Z,18.290001
2022-09-13T07:07:55.725Z,18.35
2022-09-13T07:11:20.921Z,18.379999
2022-09-13T07:14:46.129Z,18.43
2022-09-13T07:18:11.368Z,18.48
2022-09-13T07:21:36.545Z,18.52
2022-09-13T07:25:01.757Z,18.530001
2022-09-13T07:28:27.511Z,18.559999
2022-09-13T07:31:52.230Z,18.540001
2022-09-13T07:35:17.453Z,18.51
2022-09-13T07:38:42.668Z,18.49
2022-09-13T07:42:07.793Z,18.440001
2022-09-13T07:45:32.963Z,18.379999
2022-09-13T07:48:58.226Z,18.360001
2022-09-13T07:52:23.493Z,18.32
2022-09-13T07:55:48.590Z,18.280001
2022-09-13T07:59:13.842Z,18.219999
2022-09-13T08:02:39.115Z,18.190001
2022-09-13T08:06:04.250Z,18.129999
2022-09-13T08:09:29.561Z,18.07
2022-09-13T08:12:54.734Z,18.030001
2022-09-13T08:16:19.987Z,18.02
2022-09-13T08:19:45.167Z,18.01
2022-09-13T08:23:10.421Z,18
2022-09-13T08:26:35.757Z,18.01
2022-09-13T08:30:00.868Z,18.030001
2022-09-13T08:33:26.092Z,18.07
2022-09-13T08:36:51.262Z,18.1
2022-09-13T08:40:16.576Z,18.17
2022-09-13T08:43:41.769Z,18.24
2022-09-13T08:47:06.877Z,18.280001
2022-09-13T08:50:32.125Z,18.299999
2022-09-13T08:53:57.347Z,18.34
2022-09-13T08:57:22.591Z,18.379999
2022-09-13T09:00:47.847Z,18.450001
2022-09-13T09:04:12.986Z,18.51
2022-09-13T09:07:38.191Z,18.610001
2022-09-13T09:11:03.417Z,18.709999
2022-09-13T09:14:28.624Z,18.84
2022-09-13T09:17:53.914Z,18.969999
2022-09-13T09:21:19.014Z,19.059999
2022-09-13T09:24:44.201Z,19.15
2022-09-13T09:28:09.376Z,19.25
2022-09-13T09:31:34.606Z,19.34
2022-09-13T09:34:59.905Z,19.42
2022-09-13T09:38:24.969Z,19.469999
2022-09-13T09:41:50.197Z,19.52
2022-09-13T09:45:15.447Z,19.58
2022-09-13T09:48:40.608Z,19.6
2022-09-13T09:52:05.863Z,19.65
2022-09-13T09:55:31.227Z,19.66
2022-09-13T09:58:56.415Z,19.639999
2022-09-13T10:02:21.691Z,19.65
2022-09-13T10:05:46.827Z,19.68
2022-09-13T10:09:12.110Z,19.73
2022-09-13T10:12:37.280Z,19.780001
2022-09-13T10:16:02.499Z,19.809999
2022-09-13T10:19:27.681Z,19.84
2022-09-13T10:22:52.896Z,19.870001
2022-09-13T10:26:18.217Z,19.940001
2022-09-13T10:29:43.272Z,20.01
2022-09-13T10:33:08.465Z,20.129999
2022-09-13T10:36:52.396Z,20.26
2022-09-13T10:39:58.892Z,20.41
2022-09-13T10:43:24.119Z,20.51
2022-09-13T10:46:49.255Z,20.59
2022-09-13T10:50:14.519Z,20.629999
2022-09-13T10:53:39.752Z,20.709999
2022-09-13T10:57:04.969Z,20.84
2022-09-13T11:00:30.211Z,20.98
2022-09-13T11:03:55.442Z,21.15
2022-09-13T11:07:20.672Z,21.360001
2022-09-13T11:10:45.891Z,21.52
2022-09-13T11:14:11.140Z,21.700001
2022-09-13T11:17:36.486Z,21.77
2022-09-13T11:21:01.640Z,21.809999
2022-09-13T11:24:26.882Z,21.809999
2022-09-13T11:27:52.080Z,21.93
2022-09-13T11:31:17.304Z,22
2022-09-13T11:34:42.616Z,22.02
2022-09-13T11:38:07.747Z,22
2022-09-13T11:41:32.978Z,21.98
2022-09-13T11:44:58.186Z,22
2022-09-13T11:48:23.377Z,22.040001
2022-09-13T11:51:48.774Z,22.16
2022-09-13T11:55:14.129Z,22.24
2022-09-13T11:58:39.349Z,22.370001
2022-09-13T12:02:04.725Z,22.41
2022-09-13T12:05:29.838Z,22.49
2022-09-13T12:08:55.841Z,22.549999
2022-09-13T12:12:20.343Z,22.629999
2022-09-13T12:15:45.580Z,22.719999
2022-09-13T12:19:10.824Z,22.809999
2022-09-13T12:22:36.028Z,22.879999
2022-09-13T12:26:01.277Z,22.93
2022-09-13T12:29:26.506Z,22.92
2022-09-13T12:33:08.129Z,22.959999
2022-09-13T12:36:39.868Z,22.959999
2022-09-13T12:40:05.193Z,22.99
2022-09-13T12:43:30.351Z,22.98
2022-09-13T12:46:55.510Z,23
2022-09-13T12:50:41.740Z,23
2022-09-13T12:53:46.811Z,23.01
2022-09-13T12:57:12.100Z,23
2022-09-13T13:00:37.365Z,23
2022-09-13T13:04:02.483Z,22.99
2022-09-13T13:07:27.673Z,22.950001
2022-09-13T13:10:52.870Z,22.92
2022-09-13T13:14:18.105Z,22.940001
2022-09-13T13:17:43.432Z,22.93
2022-09-13T13:21:08.515Z,22.879999
2022-09-13T13:24:33.703Z,22.83
2022-09-13T13:27:58.896Z,22.74
2022-09-13T13:31:24.286Z,22.66
2022-09-13T13:34:49.591Z,22.559999
2022-09-13T13:38:14.526Z,22.48
2022-09-13T13:41:39.752Z,22.459999
2022-09-13T13:45:04.930Z,22.450001
2022-09-13T13:48:30.174Z,22.440001
2022-09-13T13:51:55.411Z,22.4
2022-09-13T13:55:20.550Z,22.34
2022-09-13T13:58:45.795Z,22.27
2022-09-13T14:02:11.068Z,22.219999
2022-09-13T14:05:36.287Z,22.219999
2022-09-13T14:12:26.729Z,22.23
2022-09-13T14:15:51.915Z,22.209999
2022-09-13T14:19:17.093Z,22.18
2022-09-13T14:22:42.315Z,22.190001
2022-09-13T14:26:07.504Z,22.23
2022-09-13T14:29:32.708Z,22.290001
2022-09-13T15:04:38.838Z,20.360001
2022-09-13T15:08:01.131Z,21.25
2022-09-13T15:11:26.329Z,21.459999
2022-09-13T15:14:51.541Z,21.620001
2022-09-13T15:18:16.791Z,21.76
2022-09-13T15:21:42.026Z,21.84
2022-09-13T15:25:07.218Z,21.889999
2022-09-13T15:28:32.461Z,21.940001
2022-09-13T15:31:57.764Z,21.969999
2022-09-13T15:35:22.940Z,21.959999
2022-09-13T15:38:48.320Z,21.93
2022-09-13T15:42:13.582Z,21.9
2022-09-13T15:45:38.768Z,21.889999
2022-09-13T15:49:03.975Z,21.870001
2022-09-13T15:52:29.257Z,21.85
2022-09-13T15:55:54.633Z,21.83
2022-09-13T15:59:19.714Z,21.84
2022-09-13T16:02:44.892Z,21.84
2022-09-13T16:06:10.066Z,21.860001
2022-09-13T16:09:35.235Z,21.870001
2022-09-13T16:13:00.554Z,21.879999
2022-09-13T16:16:25.759Z,21.91
2022-09-13T16:19:50.908Z,21.91
2022-09-13T16:23:16.059Z,21.92
2022-09-13T16:26:41.224Z,21.889999
2022-09-13T16:30:06.473Z,21.860001
2022-09-13T16:33:31.644Z,21.83
2022-09-13T16:36:56.825Z,21.799999
2022-09-13T16:40:22.118Z,21.719999
2022-09-13T16:43:47.186Z,21.67
2022-09-13T16:47:12.466Z,21.6
2022-09-13T16:50:37.564Z,21.549999
2022-09-13T16:54:02.772Z,21.5
2022-09-13T16:57:27.974Z,21.469999
2022-09-13T17:00:53.207Z,21.440001
2022-09-13T17:04:18.552Z,21.4
2022-09-13T17:07:43.617Z,21.35
2022-09-13T17:11:08.797Z,21.27
2022-09-13T17:14:34.001Z,21.18
2022-09-13T17:17:59.203Z,21.120001
2022-09-13T17:21:24.420Z,21.059999
2022-09-13T17:24:49.587Z,20.98
2022-09-13T17:28:14.761Z,20.92
2022-09-13T17:31:40.000Z,20.870001
2022-09-13T17:35:05.109Z,20.809999
2022-09-13T17:38:30.286Z,20.75
2022-09-13T17:41:55.420Z,20.700001
2022-09-13T17:45:20.638Z,20.629999
2022-09-13T17:48:45.839Z,20.58
2022-09-13T17:52:10.979Z,20.530001
2022-09-13T17:55:36.218Z,20.469999
2022-09-13T17:59:01.347Z,20.440001
2022-09-13T18:02:26.598Z,20.370001
2022-09-13T18:05:51.731Z,20.33
2022-09-13T18:09:16.899Z,20.290001
2022-09-13T18:12:42.226Z,20.25
2022-09-13T18:16:07.383Z,20.209999
2022-09-13T18:19:45.709Z,20.16
2022-09-13T18:22:57.768Z,20.110001
2022-09-13T18:26:23.058Z,20.059999
2022-09-13T18:29:48.284Z,20.01
2022-09-13T18:33:13.509Z,19.98
2022-09-13T18:36:38.705Z,19.969999
2022-09-13T18:40:03.977Z,19.969999
2022-09-13T18:43:29.178Z,19.940001
2022-09-13T18:46:54.479Z,19.91
2022-09-13T18:50:20.161Z,19.879999
2022-09-13T18:53:44.912Z,19.860001
2022-09-13T18:57:09.994Z,19.85
2022-09-13T19:00:35.201Z,19.85
2022-09-13T19:04:00.436Z,19.85
2022-09-13T19:07:25.610Z,19.84
2022-09-13T19:10:50.787Z,19.83
2022-09-13T19:14:15.999Z,19.83
2022-09-13T19:17:41.221Z,19.82
2022-09-13T19:21:06.480Z,19.83
2022-09-13T19:24:31.635Z,19.84
2022-09-13T19:27:56.813Z,19.860001
2022-09-13T19:31:22.211Z,19.860001
2022-09-13T19:34:47.243Z,19.85
2022-09-13T19:38:12.507Z,19.860001
2022-09-13T19:41:37.646Z,19.84
2022-09-13T19:45:02.851Z,19.85
2022-09-13T19:48:38.453Z,19.85
2022-09-13T19:51:53.256Z,19.85
2022-09-13T19:55:18.502Z,19.84
2022-09-13T19:58:43.706Z,19.84
2022-09-13T20:02:08.919Z,19.809999
2022-09-13T20:05:34.180Z,19.790001
2022-09-13T20:08:59.376Z,19.77
2022-09-13T20:12:24.607Z,19.76
2022-09-13T20:15:49.788Z,19.76
2022-09-13T20:19:36.759Z,19.75
2022-09-13T20:22:40.157Z,19.73
2022-09-13T20:26:05.378Z,19.700001
2022-09-13T20:29:31.380Z,19.700001
2022-09-13T20:32:56.527Z,19.68
2022-09-13T20:36:21.714Z,19.68
2022-09-13T20:39:46.949Z,19.68
2022-09-13T20:43:12.094Z,19.66
2022-09-13T20:46:37.339Z,19.65
2022-09-13T20:50:02.412Z,19.65
2022-09-13T20:53:27.607Z,19.639999
2022-09-13T20:56:52.800Z,19.65
2022-09-13T21:00:18.016Z,19.629999
2022-09-13T21:03:43.237Z,19.629999
2022-09-13T21:07:12.345Z,19.639999
2022-09-13T21:10:33.558Z,19.639999
2022-09-13T21:13:58.751Z,19.65
2022-09-13T21:17:23.948Z,19.65
2022-09-13T21:20:49.223Z,19.65
2022-09-13T21:24:14.302Z,19.639999
2022-09-13T21:27:39.480Z,19.610001
2022-09-13T21:31:04.798Z,19.559999
2022-09-13T21:34:29.845Z,19.51
2022-09-13T21:37:55.139Z,19.49
2022-09-13T21:41:20.218Z,19.440001
2022-09-13T21:44:45.419Z,19.370001
2022-09-13T21:48:10.645Z,19.33
2022-09-13T21:51:35.847Z,19.309999
2022-09-13T21:55:01.055Z,19.299999
2022-09-13T21:58:26.274Z,19.27
2022-09-13T22:01:51.530Z,19.24
2022-09-13T22:05:16.712Z,19.200001
2022-09-13T22:08:41.957Z,19.18
2022-09-13T22:12:07.265Z,19.17
2022-09-13T22:15:32.369Z,19.129999
2022-09-13T22:18:57.616Z,19.07
2022-09-13T22:22:22.789Z,19.02
2022-09-13T22:25:47.995Z,18.98
2022-09-13T22:29:13.226Z,18.98
2022-09-13T22:32:38.476Z,18.99
2022-09-13T22:36:03.702Z,19
2022-09-13T22:39:28.898Z,18.98
2022-09-13T22:42:54.158Z,18.969999
2022-09-13T22:46:19.544Z,18.99
2022-09-13T22:49:44.581Z,18.99
2022-09-13T22:53:09.793Z,19.01
2022-09-13T22:56:35.044Z,19.02
2022-09-13T23:00:00.286Z,19.040001
2022-09-13T23:03:25.556Z,19.049999
2022-09-13T23:06:50.690Z,19.049999
2022-09-13T23:10:15.917Z,19.049999
2022-09-13T23:13:41.123Z,19.07
2022-09-13T23:17:06.402Z,19.07
2022-09-13T23:20:31.559Z,19.07
2022-09-13T23:23:56.698Z,19.040001
2022-09-13T23:27:21.926Z,19.01
2022-09-13T23:30:47.122Z,19.01
2022-09-13T23:34:12.322Z,19.01
2022-09-13T23:37:37.590Z,19.01
2022-09-13T23:41:02.811Z,19.01
2022-09-13T23:44:27.979Z,19.040001
2022-09-13T23:47:53.152Z,19.040001
2022-09-13T23:51:18.360Z,19.030001
2022-09-13T23:54:43.575Z,19.01
2022-09-13T23:58:08.748Z,19.01
